Time;durP1;ratioP1;P1;durP2;ratioP2;P2;SDS_P1;SDS_P2;PMS_P1;PMS_P2;Temp;Humidity;BMP_temperature;BMP_pressure;BME280_temperature;BME280_humidity;BME280_pressure;Samples;Min_cycle;Max_cycle;Signal;HPM_P1;HPM_P2
2023/08/25 00:01:27;;;;;;;7.43;2.35;;;;;;;20.09;100.00;98108.22;4136131;28;20208;-48
2023/08/25 00:03:29;;;;;;;1.58;1.40;;;;;;;19.98;100.00;98115.19;4132721;28;21527;-49
2023/08/25 00:05:36;;;;;;;1.85;1.50;;;;;;;19.98;100.00;98112.41;4135791;28;20323;-50
2023/08/25 00:07:37;;;;;;;1.70;1.08;;;;;;;19.96;100.00;98109.94;4142741;28;20240;-48
2023/08/25 00:09:39;;;;;;;2.33;2.13;;;;;;;19.94;100.00;98111.41;4141740;28;20268;-50
2023/08/25 00:11:41;;;;;;;1.42;1.33;;;;;;;19.88;100.00;98107.97;4125357;28;20210;-49
2023/08/25 00:13:43;;;;;;;6.22;1.40;;;;;;;19.91;100.00;98110.09;4132402;28;20682;-51
2023/08/25 00:15:45;;;;;;;0.98;0.98;;;;;;;19.87;100.00;98102.72;4140755;28;20630;-48
2023/08/25 00:17:47;;;;;;;1.67;1.58;;;;;;;19.96;100.00;98098.84;4134301;28;20260;-49
2023/08/25 00:19:49;;;;;;;2.85;1.35;;;;;;;19.87;100.00;98091.59;4124143;28;20285;-49
2023/08/25 00:21:50;;;;;;;1.60;1.50;;;;;;;19.75;100.00;98099.72;4138828;28;20209;-48
2023/08/25 00:23:52;;;;;;;1.73;1.38;;;;;;;19.71;100.00;98104.28;4138215;28;20655;-48
2023/08/25 00:25:54;;;;;;;1.10;0.98;;;;;;;19.73;100.00;98102.00;4135717;28;20276;-49
2023/08/25 00:27:56;;;;;;;1.63;1.45;;;;;;;19.88;100.00;98102.41;4135204;28;20677;-48
2023/08/25 00:29:58;;;;;;;1.52;1.42;;;;;;;19.86;100.00;98098.31;4142895;28;20209;-51
2023/08/25 00:32:00;;;;;;;1.30;1.20;;;;;;;19.85;100.00;98093.88;4128232;28;20508;-50
2023/08/25 00:34:04;;;;;;;1.27;1.17;;;;;;;19.83;100.00;98098.94;4152642;28;20204;-49
2023/08/25 00:36:06;;;;;;;1.73;1.58;;;;;;;19.83;100.00;98099.75;4144441;28;20279;-50
2023/08/25 00:38:08;;;;;;;1.40;1.30;;;;;;;19.89;100.00;98083.75;4144599;28;20213;-52
2023/08/25 00:40:10;;;;;;;0.90;0.90;;;;;;;19.85;100.00;98091.91;4145242;28;20251;-51
2023/08/25 00:42:12;;;;;;;1.27;1.17;;;;;;;19.86;100.00;98098.31;4142627;28;20682;-50
2023/08/25 00:44:14;;;;;;;1.13;0.98;;;;;;;19.92;100.00;98091.47;4137566;28;20213;-51
2023/08/25 00:46:17;;;;;;;1.50;1.10;;;;;;;19.92;100.00;98088.69;4137493;28;20264;-49
2023/08/25 00:48:19;;;;;;;1.27;1.02;;;;;;;20.02;100.00;98091.16;4133120;28;20292;-48
2023/08/25 00:50:21;;;;;;;1.45;1.35;;;;;;;19.79;100.00;98087.63;4139317;28;20221;-52
2023/08/25 00:52:23;;;;;;;1.80;1.70;;;;;;;19.71;100.00;98093.97;4152328;28;20208;-50
2023/08/25 00:54:27;;;;;;;1.15;0.98;;;;;;;19.63;100.00;98093.91;4138633;28;20305;-52
2023/08/25 00:56:29;;;;;;;2.95;1.05;;;;;;;19.64;100.00;98101.13;4136665;28;20290;-50
2023/08/25 00:58:31;;;;;;;1.30;1.20;;;;;;;19.72;100.00;98097.59;4142109;28;20232;-49
2023/08/25 01:00:33;;;;;;;4.22;1.27;;;;;;;19.72;100.00;98103.13;4142256;28;20212;-49
2023/08/25 01:02:35;;;;;;;1.60;1.30;;;;;;;19.72;100.00;98105.91;4140865;28;20781;-50
2023/08/25 01:04:37;;;;;;;1.48;1.38;;;;;;;19.73;100.00;98102.00;4122762;28;20213;-50
2023/08/25 01:06:39;;;;;;;1.13;1.10;;;;;;;19.82;100.00;98098.13;4137352;28;20729;-51
2023/08/25 01:08:41;;;;;;;1.05;1.00;;;;;;;19.83;100.00;98087.81;4138525;28;20213;-48
2023/08/25 01:11:03;;;;;;;2.03;1.92;;;;;;;19.78;100.00;98096.31;4119237;28;20218;-51
2023/08/25 01:13:18;;;;;;;0.98;0.90;;;;;;;19.76;100.00;98093.00;4121316;28;20722;-48
2023/08/25 01:15:29;;;;;;;1.13;1.02;;;;;;;19.77;100.00;98103.00;4139315;28;20220;-48
2023/08/25 01:17:43;;;;;;;1.75;1.50;;;;;;;19.77;100.00;98100.22;4136927;28;20333;-48
2023/08/25 01:19:53;;;;;;;1.80;1.70;;;;;;;19.81;100.00;98106.75;4144399;28;20786;-48
2023/08/25 01:21:58;;;;;;;1.20;1.10;;;;;;;19.77;100.00;98114.91;4141437;28;20310;-49
2023/08/25 01:24:13;;;;;;;1.00;0.90;;;;;;;19.80;100.00;98116.25;4143957;28;20786;-51
2023/08/25 01:26:15;;;;;;;2.22;1.13;;;;;;;19.78;100.00;98112.97;4142275;28;20809;-49
2023/08/25 01:28:19;;;;;;;1.05;0.90;;;;;;;19.79;100.00;98114.59;4137263;28;20275;-50
2023/08/25 01:30:26;;;;;;;1.15;1.02;;;;;;;19.73;100.00;98116.72;4135551;28;20209;-48
2023/08/25 01:32:28;;;;;;;1.17;1.00;;;;;;;19.81;100.00;98096.50;4136755;28;20209;-49
2023/08/25 01:34:30;;;;;;;1.67;1.58;;;;;;;19.76;100.00;98104.13;4137114;28;20807;-48
2023/08/25 01:36:40;;;;;;;1.55;1.42;;;;;;;19.68;100.00;98107.69;4136220;28;20225;-48
2023/08/25 01:39:02;;;;;;;9.48;1.48;;;;;;;19.79;100.00;98095.16;4153986;28;20209;-51
2023/08/25 01:41:24;;;;;;;1.60;1.50;;;;;;;19.63;100.00;98103.09;4139763;28;20212;-48
2023/08/25 01:43:29;;;;;;;1.30;1.20;;;;;;;19.64;100.00;98101.13;4136816;28;20271;-48
2023/08/25 01:45:31;;;;;;;1.67;1.02;;;;;;;19.71;100.00;98096.75;4139974;28;20229;-51
2023/08/25 01:47:34;;;;;;;1.15;1.05;;;;;;;19.59;100.00;98098.50;4128942;28;20585;-48
2023/08/25 01:49:37;;;;;;;1.10;1.00;;;;;;;19.56;100.00;98101.88;4128318;28;20806;-49
2023/08/25 01:51:39;;;;;;;6.43;1.38;;;;;;;19.61;100.00;98102.59;4144931;28;20208;-52
2023/08/25 01:53:44;;;;;;;1.15;1.05;;;;;;;19.56;100.00;98099.09;4128857;28;20213;-48
2023/08/25 01:55:46;;;;;;;1.05;0.95;;;;;;;19.56;100.00;98093.56;4137084;28;20682;-48
2023/08/25 01:57:48;;;;;;;1.30;1.20;;;;;;;19.59;100.00;98098.50;4136178;28;20753;-50
2023/08/25 01:59:49;;;;;;;1.20;1.02;;;;;;;19.55;100.00;98097.47;4141506;28;20294;-48
2023/08/25 02:01:51;;;;;;;1.35;1.13;;;;;;;19.55;100.00;98092.75;4137580;28;20208;-49
2023/08/25 02:03:53;;;;;;;1.50;1.27;;;;;;;19.48;100.00;98091.56;4117431;28;20209;-50
2023/08/25 02:05:54;;;;;;;1.58;1.48;;;;;;;19.47;100.00;98090.75;4140463;28;20225;-48
2023/08/25 02:07:57;;;;;;;1.20;1.10;;;;;;;19.47;100.00;98101.03;4137984;28;20209;-48
2023/08/25 02:09:58;;;;;;;1.08;1.08;;;;;;;19.52;100.00;98092.56;4136160;28;20272;-49
2023/08/25 02:12:00;;;;;;;0.93;0.93;;;;;;;19.50;100.00;98089.28;4133414;28;20206;-49
2023/08/25 02:14:02;;;;;;;0.75;0.75;;;;;;;19.45;100.00;98081.09;4133027;28;20688;-51
2023/08/25 02:16:04;;;;;;;0.85;0.85;;;;;;;19.40;100.00;98078.47;4142738;28;20714;-50
2023/08/25 02:18:06;;;;;;;1.90;1.15;;;;;;;19.42;100.00;98070.63;4136517;28;20713;-50
2023/08/25 02:20:08;;;;;;;1.00;0.90;;;;;;;19.39;100.00;98054.63;4134064;28;20213;-49
2023/08/25 02:22:10;;;;;;;1.48;1.13;;;;;;;19.33;100.00;98058.66;4141795;28;20200;-54
2023/08/25 02:24:11;;;;;;;0.70;0.70;;;;;;;19.28;100.00;98054.06;4133187;28;20255;-49
2023/08/25 02:26:13;;;;;;;1.02;0.95;;;;;;;19.28;100.00;98058.78;4135235;28;20221;-48
2023/08/25 02:28:15;;;;;;;0.90;0.90;;;;;;;19.28;100.00;98050.47;4136045;28;20212;-48
2023/08/25 02:30:17;;;;;;;1.27;1.20;;;;;;;19.24;100.00;98053.06;4137843;28;20556;-48
2023/08/25 02:32:18;;;;;;;1.50;1.30;;;;;;;19.29;100.00;98052.09;4134684;28;20260;-50
2023/08/25 02:34:22;;;;;;;0.93;0.93;;;;;;;19.24;100.00;98041.97;4133097;28;20238;-49
2023/08/25 02:36:23;;;;;;;1.08;0.90;;;;;;;19.20;100.00;98051.25;4137536;28;20233;-49
2023/08/25 02:38:25;;;;;;;1.25;1.15;;;;;;;19.23;100.00;98050.59;4120533;28;20592;-51
2023/08/25 02:40:27;;;;;;;1.00;0.93;;;;;;;19.25;100.00;98040.81;4131995;28;20206;-48
2023/08/25 02:42:29;;;;;;;0.90;0.90;;;;;;;19.24;100.00;98041.16;4135219;28;20208;-49
2023/08/25 02:44:31;;;;;;;0.90;0.90;;;;;;;19.20;100.00;98040.13;4134630;28;20637;-48
2023/08/25 02:46:33;;;;;;;0.98;0.90;;;;;;;19.24;100.00;98035.59;4136697;28;21811;-48
2023/08/25 02:48:34;;;;;;;1.33;1.23;;;;;;;19.27;100.00;98035.78;4153035;28;20309;-52
2023/08/25 02:50:36;;;;;;;3.38;2.38;;;;;;;19.31;100.00;98031.22;4141240;28;20276;-50
2023/08/25 02:52:38;;;;;;;1.23;1.13;;;;;;;19.07;100.00;98016.03;4136355;28;20224;-53
2023/08/25 02:54:40;;;;;;;1.15;1.10;;;;;;;18.89;100.00;98003.19;4135757;28;20206;-49
2023/08/25 02:56:44;;;;;;;1.25;1.15;;;;;;;18.91;100.00;98012.81;4135919;28;20232;-48
2023/08/25 02:58:46;;;;;;;1.17;1.08;;;;;;;18.86;100.00;98012.16;4141744;28;20217;-48
2023/08/25 03:00:48;;;;;;;1.20;1.10;;;;;;;18.88;100.00;98015.41;4142209;28;20208;-48
2023/08/25 03:02:50;;;;;;;1.33;1.23;;;;;;;18.91;100.00;98020.34;4137551;28;20205;-48
2023/08/25 03:04:52;;;;;;;1.60;1.10;;;;;;;18.96;100.00;98017.41;4138019;28;20694;-48
2023/08/25 03:06:54;;;;;;;1.35;1.25;;;;;;;18.97;100.00;98019.09;4136478;28;20226;-49
2023/08/25 03:08:56;;;;;;;1.48;1.38;;;;;;;19.04;100.00;98019.47;4142008;28;20202;-49
2023/08/25 03:11:01;;;;;;;0.90;0.90;;;;;;;19.05;100.00;98021.09;4139071;28;20232;-48
2023/08/25 03:13:03;;;;;;;1.10;0.93;;;;;;;19.06;100.00;98017.19;4134355;28;20214;-48
2023/08/25 03:15:07;;;;;;;1.20;1.10;;;;;;;19.13;100.00;98020.31;4142343;28;20235;-51
2023/08/25 03:17:09;;;;;;;0.68;0.68;;;;;;;19.11;100.00;98015.06;4134062;28;20225;-48
2023/08/25 03:19:11;;;;;;;0.90;0.90;;;;;;;19.07;100.00;98013.25;4142203;28;20228;-51
2023/08/25 03:21:12;;;;;;;1.17;1.13;;;;;;;19.03;100.00;98006.69;4136333;28;20252;-49
2023/08/25 03:23:14;;;;;;;1.10;1.00;;;;;;;19.02;100.00;98005.06;4135748;28;20205;-49
2023/08/25 03:25:16;;;;;;;1.08;1.08;;;;;;;19.05;100.00;98010.00;4151230;28;20201;-48
2023/08/25 03:27:18;;;;;;;0.80;0.80;;;;;;;19.06;100.00;98006.06;4142168;28;20205;-51
2023/08/25 03:29:20;;;;;;;0.80;0.80;;;;;;;19.06;100.00;97990.25;4152934;28;20213;-49
2023/08/25 03:31:21;;;;;;;1.10;1.00;;;;;;;19.13;100.00;97978.72;4151850;28;20732;-52
2023/08/25 03:33:23;;;;;;;0.90;0.90;;;;;;;19.18;100.00;97975.81;4134141;28;20211;-47
2023/08/25 03:35:25;;;;;;;1.10;0.88;;;;;;;19.05;100.00;97971.97;4141267;28;20205;-50
2023/08/25 03:37:27;;;;;;;6.25;1.38;;;;;;;19.05;100.00;97971.16;4142915;28;20634;-52
2023/08/25 03:39:28;;;;;;;1.48;1.38;;;;;;;18.93;100.00;97979.25;4148256;28;20670;-50
2023/08/25 03:41:30;;;;;;;1.27;0.88;;;;;;;18.93;100.00;97993.91;4137280;28;20215;-53
2023/08/25 03:43:35;;;;;;;1.50;1.25;;;;;;;18.95;100.00;98026.88;4136167;28;20209;-49
2023/08/25 03:45:37;;;;;;;1.38;1.30;;;;;;;19.06;100.00;98031.03;4133537;28;20255;-49
2023/08/25 03:47:38;;;;;;;0.80;0.80;;;;;;;18.71;100.00;98004.22;4136740;28;20633;-52
2023/08/25 03:49:40;;;;;;;1.58;1.27;;;;;;;18.54;100.00;97970.81;4138298;28;20209;-50
2023/08/25 03:51:42;;;;;;;1.25;1.15;;;;;;;18.51;100.00;97932.66;4133153;28;20213;-52
2023/08/25 03:53:43;;;;;;;0.88;0.88;;;;;;;18.50;100.00;97881.94;4135323;28;20727;-47
2023/08/25 03:55:45;;;;;;;1.55;1.45;;;;;;;18.51;100.00;97877.22;4133497;28;20641;-47
2023/08/25 03:57:47;;;;;;;1.20;1.10;;;;;;;18.58;100.00;97911.66;4134819;28;20291;-49
2023/08/25 03:59:49;;;;;;;10.13;2.25;;;;;;;18.60;100.00;97892.78;4140295;28;20213;-47
2023/08/25 04:01:50;;;;;;;1.58;1.35;;;;;;;18.59;100.00;97855.09;4133754;28;20257;-47
2023/08/25 04:03:52;;;;;;;7.25;1.65;;;;;;;18.66;100.00;97857.41;4149705;28;20213;-49
2023/08/25 04:05:54;;;;;;;1.30;1.10;;;;;;;18.69;100.00;97890.88;4136143;28;20790;-48
2023/08/25 04:07:56;;;;;;;1.75;1.65;;;;;;;18.78;100.00;97913.09;4154936;28;20245;-49
2023/08/25 04:09:57;;;;;;;1.45;1.35;;;;;;;18.81;100.00;97920.78;4137644;28;20209;-50
2023/08/25 04:11:59;;;;;;;1.58;1.40;;;;;;;18.83;100.00;97919.31;4134304;28;20201;-50
2023/08/25 04:14:01;;;;;;;1.17;1.08;;;;;;;18.82;100.00;97928.78;4138978;28;20214;-47
2023/08/25 04:16:04;;;;;;;7.82;2.03;;;;;;;18.87;100.00;97909.25;4137147;28;20241;-48
2023/08/25 04:18:05;;;;;;;0.80;0.80;;;;;;;18.96;100.00;97917.59;4132482;28;20206;-48
2023/08/25 04:20:10;;;;;;;2.20;2.00;;;;;;;18.92;100.00;97911.84;4138043;28;20209;-49
2023/08/25 04:22:11;;;;;;;1.67;1.38;;;;;;;18.86;100.00;97913.13;4141924;28;20216;-53
2023/08/25 04:24:13;;;;;;;1.20;1.13;;;;;;;18.95;100.00;97918.72;4136982;28;20635;-47
2023/08/25 04:26:15;;;;;;;1.35;1.25;;;;;;;18.97;100.00;97933.91;4142214;28;20229;-47
2023/08/25 04:28:17;;;;;;;2.75;1.30;;;;;;;18.89;100.00;97914.44;4142277;28;20253;-48
2023/08/25 04:30:22;;;;;;;1.25;1.20;;;;;;;19.00;100.00;97932.47;4126746;28;20742;-47
2023/08/25 04:32:26;;;;;;;2.45;2.22;;;;;;;18.88;100.00;97933.06;4140991;28;20206;-50
2023/08/25 04:34:27;;;;;;;2.13;1.48;;;;;;;18.88;100.00;97937.78;4152448;28;20247;-50
2023/08/25 04:36:29;;;;;;;2.35;1.80;;;;;;;19.02;100.00;97955.97;4136822;28;20722;-49
2023/08/25 04:38:31;;;;;;;1.02;0.90;;;;;;;18.96;100.00;97978.59;4136383;28;20209;-52
2023/08/25 04:40:33;;;;;;;1.40;1.30;;;;;;;19.09;100.00;98005.44;4136857;28;20205;-51
2023/08/25 04:42:34;;;;;;;2.58;2.10;;;;;;;19.13;100.00;98028.63;4134179;28;20291;-51
2023/08/25 04:44:38;;;;;;;2.00;1.90;;;;;;;18.92;100.00;98033.88;4138078;28;20217;-48
2023/08/25 04:46:40;;;;;;;1.38;1.20;;;;;;;18.77;100.00;98033.44;4154236;28;20232;-47
2023/08/25 04:48:45;;;;;;;1.75;1.65;;;;;;;18.69;100.00;98045.25;4136940;28;20214;-49
2023/08/25 04:50:47;;;;;;;2.40;2.25;;;;;;;18.81;100.00;98071.31;4121535;28;20549;-51
2023/08/25 04:52:50;;;;;;;1.50;1.40;;;;;;;18.81;100.00;98103.75;4137382;28;20205;-49
2023/08/25 04:54:52;;;;;;;1.67;1.58;;;;;;;18.85;100.00;98110.34;4138387;28;20209;-47
2023/08/25 04:56:54;;;;;;;1.30;1.20;;;;;;;18.94;100.00;98117.59;4140277;28;20684;-48
2023/08/25 04:58:55;;;;;;;1.42;1.33;;;;;;;19.06;100.00;98114.25;4136470;28;20228;-48
2023/08/25 05:00:57;;;;;;;1.85;1.48;;;;;;;19.18;100.00;98103.41;4127060;28;20210;-49
2023/08/25 05:02:59;;;;;;;2.83;1.48;;;;;;;19.22;100.00;98126.63;4137284;28;20213;-47
2023/08/25 05:05:03;;;;;;;1.95;1.58;;;;;;;19.21;100.00;98136.09;4122261;28;20214;-50
2023/08/25 05:07:06;;;;;;;1.45;1.35;;;;;;;19.21;100.00;98130.56;4139152;28;20233;-47
2023/08/25 05:09:09;;;;;;;1.42;1.33;;;;;;;19.23;100.00;98128.28;4138419;28;20241;-49
2023/08/25 05:11:11;;;;;;;2.10;1.63;;;;;;;19.21;100.00;98125.00;4136886;28;20206;-47
2023/08/25 05:13:13;;;;;;;2.22;1.58;;;;;;;19.22;100.00;98148.84;4138304;28;20214;-47
2023/08/25 05:15:15;;;;;;;2.08;1.55;;;;;;;19.28;100.00;98142.88;4138816;28;20215;-48
2023/08/25 05:17:17;;;;;;;1.50;1.08;;;;;;;19.24;100.00;98113.28;4132309;28;20283;-48
2023/08/25 05:19:20;;;;;;;1.98;1.88;;;;;;;19.24;100.00;98096.66;4134903;28;20213;-49
2023/08/25 05:21:22;;;;;;;1.42;1.30;;;;;;;19.24;100.00;98068.91;4149727;28;20520;-47
2023/08/25 05:23:23;;;;;;;1.73;1.63;;;;;;;19.22;100.00;98040.63;4137210;28;20229;-49
2023/08/25 05:25:25;;;;;;;1.45;1.35;;;;;;;19.25;100.00;98026.94;4137512;28;20574;-48
2023/08/25 05:27:27;;;;;;;1.40;1.30;;;;;;;19.32;100.00;98007.06;4136158;28;20221;-47
2023/08/25 05:29:29;;;;;;;0.77;0.77;;;;;;;19.31;100.00;98013.78;4136903;28;20217;-48
2023/08/25 05:31:30;;;;;;;2.13;1.98;;;;;;;19.30;100.00;98045.41;4134577;28;20237;-53
2023/08/25 05:33:32;;;;;;;1.30;1.08;;;;;;;19.29;100.00;98033.50;4139921;28;20340;-47
2023/08/25 05:35:34;;;;;;;1.70;1.60;;;;;;;19.29;100.00;98016.03;4140452;28;20743;-50
2023/08/25 05:37:36;;;;;;;1.30;1.20;;;;;;;19.30;100.00;98001.84;4133261;28;20240;-47
2023/08/25 05:39:37;;;;;;;1.88;1.30;;;;;;;19.36;100.00;97994.19;4133426;28;20214;-47
2023/08/25 05:41:39;;;;;;;0.88;0.88;;;;;;;19.36;100.00;97983.09;4136952;28;20213;-48
2023/08/25 05:43:41;;;;;;;1.42;1.33;;;;;;;19.36;100.00;97983.09;4123218;28;20305;-51
2023/08/25 05:45:43;;;;;;;0.75;0.75;;;;;;;19.34;100.00;97979.81;4119116;28;20234;-51
2023/08/25 05:47:45;;;;;;;1.67;1.23;;;;;;;19.39;100.00;97982.47;4136307;28;20205;-48
2023/08/25 05:49:46;;;;;;;1.33;1.08;;;;;;;19.37;100.00;97985.56;4139953;28;20209;-47
2023/08/25 05:51:50;;;;;;;1.08;1.00;;;;;;;19.40;100.00;98000.75;4136343;28;20220;-51
2023/08/25 05:53:52;;;;;;;1.60;1.17;;;;;;;19.46;100.00;97993.91;4134135;28;20215;-48
2023/08/25 05:55:54;;;;;;;1.90;1.35;;;;;;;19.50;100.00;97994.91;4136140;28;20228;-50
2023/08/25 05:57:56;;;;;;;3.25;1.85;;;;;;;19.41;100.00;98003.22;4138206;28;20727;-52
2023/08/25 05:59:58;;;;;;;1.00;0.98;;;;;;;19.43;100.00;98005.66;4135210;28;20962;-48
2023/08/25 06:02:00;;;;;;;1.40;1.00;;;;;;;19.42;100.00;98004.00;4133665;28;20213;-48
2023/08/25 06:04:03;;;;;;;1.73;1.63;;;;;;;19.41;100.00;98022.63;4141566;28;20944;-49
2023/08/25 06:06:05;;;;;;;0.82;0.82;;;;;;;19.41;100.00;98019.03;4135511;28;20703;-48
2023/08/25 06:08:07;;;;;;;1.25;1.15;;;;;;;19.48;100.00;98019.38;4120125;28;20206;-49
2023/08/25 06:10:09;;;;;;;2.50;1.88;;;;;;;19.48;100.00;98030.50;4136083;28;20618;-49
2023/08/25 06:12:11;;;;;;;1.38;1.25;;;;;;;19.47;100.00;98034.41;4120858;28;20209;-50
2023/08/25 06:14:12;;;;;;;1.05;0.95;;;;;;;19.46;100.00;98028.03;4136905;28;20296;-50
2023/08/25 06:16:14;;;;;;;0.80;0.80;;;;;;;19.61;100.00;98035.13;4141261;28;20229;-47
2023/08/25 06:18:16;;;;;;;1.08;1.00;;;;;;;19.54;100.00;98023.66;4136132;28;20222;-47
2023/08/25 06:20:19;;;;;;;1.75;1.65;;;;;;;19.45;100.00;98011.72;4118317;28;20217;-47
2023/08/25 06:22:22;;;;;;;0.95;0.90;;;;;;;19.45;100.00;98014.50;4146953;28;20283;-53
2023/08/25 06:24:25;;;;;;;1.20;1.10;;;;;;;19.46;100.00;98016.13;4135307;28;20207;-49
2023/08/25 06:26:27;;;;;;;1.05;0.85;;;;;;;19.39;100.00;98015.75;4139904;28;20775;-49
2023/08/25 06:28:28;;;;;;;1.55;1.45;;;;;;;19.44;100.00;98010.09;4113299;28;20210;-50
2023/08/25 06:30:31;;;;;;;19.10;1.75;;;;;;;19.44;100.00;98005.34;4152362;28;20216;-49
2023/08/25 06:32:32;;;;;;;1.10;1.00;;;;;;;19.50;100.00;98000.44;4139238;28;20685;-50
2023/08/25 06:34:34;;;;;;;5.30;1.73;;;;;;;19.50;100.00;97998.50;4134527;28;20226;-48
2023/08/25 06:36:36;;;;;;;1.42;1.33;;;;;;;19.53;100.00;97983.19;4132876;28;20312;-47
2023/08/25 06:38:38;;;;;;;4.32;1.35;;;;;;;19.60;100.00;97983.53;4131709;28;20236;-52
2023/08/25 06:40:56;;;;;;;1.20;0.98;;;;;;;19.51;100.00;97979.91;4134488;28;20216;-47
2023/08/25 06:42:58;;;;;;;2.17;1.52;;;;;;;19.56;100.00;97971.41;4132857;28;20244;-51
2023/08/25 06:44:59;;;;;;;1.15;1.02;;;;;;;19.59;100.00;97976.34;4133085;28;20210;-48
2023/08/25 06:47:02;;;;;;;1.60;1.50;;;;;;;19.57;100.00;97995.28;4134199;28;20662;-48
2023/08/25 06:49:03;;;;;;;1.20;1.10;;;;;;;19.61;100.00;97997.09;4133076;28;20243;-48
2023/08/25 06:51:05;;;;;;;2.13;1.00;;;;;;;19.70;100.00;97995.16;4132575;28;20208;-48
2023/08/25 06:53:07;;;;;;;0.80;0.80;;;;;;;19.67;100.00;97992.22;4134030;28;20296;-48
2023/08/25 06:55:09;;;;;;;1.23;0.90;;;;;;;19.68;100.00;97993.84;4129168;28;20281;-49
2023/08/25 06:57:11;;;;;;;1.40;1.02;;;;;;;19.69;100.00;98003.81;4133780;28;20769;-47
2023/08/25 06:59:14;;;;;;;1.15;1.05;;;;;;;19.68;100.00;98007.72;4118247;28;20506;-52
2023/08/25 07:01:18;;;;;;;1.15;0.98;;;;;;;19.70;100.00;97999.88;4139303;28;20240;-47
2023/08/25 07:03:20;;;;;;;0.90;0.90;;;;;;;19.72;100.00;98014.28;4138089;28;20205;-47
2023/08/25 07:05:23;;;;;;;1.33;1.23;;;;;;;19.83;100.00;98013.66;4137056;28;20213;-47
2023/08/25 07:07:26;;;;;;;1.80;1.58;;;;;;;19.84;100.00;98029.19;4137600;28;20215;-47
2023/08/25 07:09:29;;;;;;;0.80;0.80;;;;;;;19.89;100.00;98019.88;4117757;28;20214;-47
2023/08/25 07:11:30;;;;;;;8.82;0.90;;;;;;;20.03;100.00;98026.13;4136259;28;20252;-47
2023/08/25 07:13:32;;;;;;;0.70;0.70;;;;;;;20.11;100.00;98034.53;4141630;28;20204;-49
2023/08/25 07:15:36;;;;;;;1.27;0.90;;;;;;;20.17;100.00;98032.44;4136793;28;20236;-47
2023/08/25 07:17:39;;;;;;;0.88;0.88;;;;;;;20.13;100.00;98048.94;4152598;28;20644;-47
2023/08/25 07:19:42;;;;;;;0.88;0.88;;;;;;;20.11;100.00;98050.38;4124112;28;20293;-48
2023/08/25 07:21:44;;;;;;;1.45;0.90;;;;;;;20.12;100.00;98058.38;4140355;28;20209;-49
2023/08/25 07:23:46;;;;;;;0.80;0.80;;;;;;;20.09;100.00;98047.09;4136164;28;20215;-47
2023/08/25 07:25:52;;;;;;;1.20;1.10;;;;;;;20.15;100.00;98048.59;4132404;28;20229;-49
2023/08/25 07:27:54;;;;;;;0.95;0.95;;;;;;;20.11;100.00;98045.63;4140028;28;20196;-48
2023/08/25 07:29:56;;;;;;;2.65;1.45;;;;;;;20.13;100.00;98036.97;4137139;28;20233;-51
2023/08/25 07:31:58;;;;;;;4.70;1.10;;;;;;;20.12;100.00;98027.03;4152923;28;20216;-49
2023/08/25 07:34:07;;;;;;;0.95;0.70;;;;;;;20.32;100.00;98023.63;4138330;28;20241;-46
2023/08/25 07:36:09;;;;;;;0.88;0.82;;;;;;;20.31;100.00;98024.78;4141879;28;20705;-46
2023/08/25 07:38:11;;;;;;;0.80;0.80;;;;;;;20.37;100.00;98024.28;4152475;28;20233;-46
2023/08/25 07:40:13;;;;;;;0.80;0.80;;;;;;;20.48;100.00;98030.34;4136396;28;20208;-47
2023/08/25 07:42:15;;;;;;;0.65;0.60;;;;;;;20.53;100.00;98024.63;4129816;28;20276;-47
2023/08/25 07:44:17;;;;;;;1.90;0.98;;;;;;;20.70;100.00;98027.44;4138879;28;20209;-47
2023/08/25 07:46:20;;;;;;;0.93;0.93;;;;;;;20.72;100.00;98037.06;4136014;28;20224;-47
2023/08/25 07:48:23;;;;;;;1.50;1.40;;;;;;;20.75;100.00;98032.81;4154172;28;20256;-48
2023/08/25 07:50:29;;;;;;;0.50;0.50;;;;;;;20.77;100.00;98036.09;4135952;28;20216;-47
2023/08/25 07:52:31;;;;;;;0.75;0.75;;;;;;;20.93;100.00;98028.91;4138229;28;20224;-48
2023/08/25 07:54:33;;;;;;;1.08;0.90;;;;;;;21.13;100.00;98031.00;4135953;28;20572;-49
2023/08/25 07:56:35;;;;;;;4.65;0.60;;;;;;;21.16;100.00;98022.00;4159204;28;20984;-49
2023/08/25 07:58:40;;;;;;;1.10;0.60;;;;;;;21.22;100.00;98020.66;4141143;28;20641;-49
2023/08/25 08:00:44;;;;;;;0.73;0.65;;;;;;;21.25;100.00;98006.91;4134702;28;20618;-48
2023/08/25 08:02:47;;;;;;;2.53;1.42;;;;;;;21.40;100.00;98016.69;4142344;28;20208;-51
2023/08/25 08:04:51;;;;;;;1.10;0.77;;;;;;;21.39;100.00;98015.06;4142940;28;20205;-50
2023/08/25 08:06:53;;;;;;;0.80;0.80;;;;;;;21.70;100.00;98032.38;4151794;28;20239;-50
2023/08/25 08:08:56;;;;;;;0.80;0.80;;;;;;;21.93;100.00;98047.66;4139702;28;20201;-46
2023/08/25 08:10:58;;;;;;;0.65;0.60;;;;;;;22.08;100.00;98047.94;4154209;28;20720;-46
2023/08/25 08:13:00;;;;;;;0.82;0.82;;;;;;;22.14;100.00;98045.75;4123146;28;20217;-47
2023/08/25 08:15:04;;;;;;;0.90;0.85;;;;;;;21.79;100.00;98041.50;4139770;28;20690;-50
2023/08/25 08:17:08;;;;;;;0.55;0.55;;;;;;;22.01;100.00;98049.59;4142416;28;20240;-48
2023/08/25 08:19:10;;;;;;;0.80;0.80;;;;;;;22.25;100.00;98038.66;4125796;28;20236;-47
2023/08/25 08:21:13;;;;;;;0.70;0.70;;;;;;;22.58;100.00;98025.66;4136755;28;20281;-48
2023/08/25 08:23:15;;;;;;;0.77;0.77;;;;;;;22.30;100.00;98035.69;4155061;28;20204;-48
2023/08/25 08:25:19;;;;;;;1.02;0.70;;;;;;;22.48;100.00;98053.94;4152563;28;20576;-48
2023/08/25 08:27:21;;;;;;;0.77;0.60;;;;;;;22.62;100.00;98058.13;4146081;28;20575;-48
2023/08/25 08:29:23;;;;;;;1.15;1.05;;;;;;;22.53;100.00;98074.13;4132666;28;20209;-48
2023/08/25 08:31:26;;;;;;;0.80;0.65;;;;;;;22.57;100.00;98063.09;4154264;28;20287;-47
2023/08/25 08:33:32;;;;;;;0.70;0.70;;;;;;;22.70;100.00;98056.44;4152929;28;20224;-47
2023/08/25 08:35:42;;;;;;;0.55;0.55;;;;;;;23.00;100.00;98052.41;4138360;28;20242;-48
2023/08/25 08:37:44;;;;;;;0.75;0.45;;;;;;;22.91;100.00;98041.31;4140412;28;20228;-47
2023/08/25 08:39:46;;;;;;;0.50;0.50;;;;;;;22.77;98.85;98014.84;4137619;28;20276;-49
2023/08/25 08:41:52;;;;;;;2.50;0.60;;;;;;;22.77;98.53;98028.81;4139638;28;20236;-49
2023/08/25 08:43:56;;;;;;;0.60;0.60;;;;;;;23.13;99.99;98034.53;4142865;28;20208;-49
2023/08/25 08:46:06;;;;;;;1.23;0.65;;;;;;;22.79;96.47;98037.63;4155888;28;20232;-51
2023/08/25 08:48:09;;;;;;;0.93;0.80;;;;;;;22.81;98.26;98033.34;4155900;28;20741;-50
2023/08/25 08:50:11;;;;;;;0.52;0.52;;;;;;;22.71;99.60;98032.94;4137212;28;20332;-47
2023/08/25 08:52:14;;;;;;;2.05;0.70;;;;;;;22.59;98.82;98032.88;4136468;28;20213;-48
2023/08/25 08:54:19;;;;;;;9.43;1.10;;;;;;;22.68;100.00;98030.81;4139721;28;20219;-48
2023/08/25 08:56:22;;;;;;;0.98;0.88;;;;;;;22.66;100.00;98039.56;4142419;28;20292;-48
2023/08/25 08:58:25;;;;;;;2.90;0.40;;;;;;;22.64;97.79;98035.47;4138731;28;20228;-49
2023/08/25 09:00:27;;;;;;;0.65;0.55;;;;;;;22.43;99.34;98021.50;4121079;28;20292;-48
2023/08/25 09:02:30;;;;;;;0.63;0.60;;;;;;;22.43;99.60;98029.06;4175136;23;20275;-66
2023/08/25 09:04:33;;;;;;;1.10;0.70;;;;;;;22.37;99.39;98027.59;4160849;28;20216;-68
2023/08/25 09:06:37;;;;;;;0.80;0.70;;;;;;;22.38;99.05;98020.84;4177377;28;20233;-69
2023/08/25 09:08:39;;;;;;;0.47;0.47;;;;;;;22.39;100.00;98033.63;4177744;28;20204;-68
2023/08/25 09:10:41;;;;;;;0.60;0.60;;;;;;;22.40;100.00;98035.28;4175165;28;20294;-66
2023/08/25 09:12:45;;;;;;;0.40;0.40;;;;;;;22.39;99.72;98028.91;4177284;28;20225;-70
2023/08/25 09:14:47;;;;;;;1.00;0.65;;;;;;;22.38;99.99;98032.00;4169875;28;20774;-70
2023/08/25 09:16:49;;;;;;;1.55;0.50;;;;;;;22.26;100.00;98012.41;4177223;28;20997;-68
2023/08/25 09:18:52;;;;;;;1.35;1.25;;;;;;;22.33;100.00;98009.91;4170332;28;20228;-70
2023/08/25 09:20:54;;;;;;;1.40;0.60;;;;;;;22.33;100.00;98019.09;4171206;28;20211;-69
2023/08/25 09:22:57;;;;;;;0.60;0.60;;;;;;;22.41;100.00;98036.91;4173075;28;20208;-72
2023/08/25 09:24:58;;;;;;;0.73;0.60;;;;;;;22.31;100.00;98048.47;4155484;28;20207;-68
2023/08/25 09:27:03;;;;;;;0.43;0.43;;;;;;;22.39;100.00;98055.94;4176844;28;20228;-64
2023/08/25 09:29:05;;;;;;;0.60;0.52;;;;;;;22.38;100.00;98054.31;4173500;28;20199;-66
2023/08/25 09:31:19;;;;;;;0.68;0.68;;;;;;;22.47;100.00;98057.91;4170576;28;20203;-69
2023/08/25 09:33:21;;;;;;;0.60;0.60;;;;;;;22.50;100.00;98051.66;4171114;28;20598;-72